createdAt,value
2023-05-07T00:02:39.324Z,101161.19
2023-05-07T00:05:44.940Z,101153.59
2023-05-07T00:08:50.769Z,101167.69
2023-05-07T00:11:56.729Z,101159.34
2023-05-07T00:15:04.043Z,101168.25
2023-05-07T00:18:09.633Z,101158.34
2023-05-07T00:21:15.269Z,101150.22
2023-05-07T00:24:21.297Z,101149.72
2023-05-07T00:27:27.208Z,101152.69
2023-05-07T00:30:33.354Z,101156.44
2023-05-07T00:33:39.706Z,101163.22
2023-05-07T00:36:44.891Z,101161.88
2023-05-07T00:39:51.020Z,101154.84
2023-05-07T00:42:59.525Z,101157.81
2023-05-07T00:46:05.129Z,101167.28
2023-05-07T00:49:11.141Z,101165.63
2023-05-07T00:52:18.964Z,101163.78
2023-05-07T00:55:25.235Z,101164.84
2023-05-07T00:58:31.717Z,101167.50
2023-05-07T01:01:38.177Z,101157.31
2023-05-07T01:04:44.110Z,101157.53
2023-05-07T01:07:51.461Z,101160.91
2023-05-07T01:10:59.011Z,101165.00
2023-05-07T01:14:05.741Z,101165.88
2023-05-07T01:17:12.266Z,101163.44
2023-05-07T01:20:19.218Z,101160.44
2023-05-07T01:23:26.993Z,101170.91
2023-05-07T01:26:32.620Z,101158.22
2023-05-07T01:29:38.625Z,101158.59
2023-05-07T01:32:54.881Z,101153.97
2023-05-07T01:36:03.521Z,101156.97
2023-05-07T01:39:10.996Z,101158.84
2023-05-07T01:42:16.605Z,101159.66
2023-05-07T01:45:23.097Z,101160.75
2023-05-07T01:48:30.234Z,101164.25
2023-05-07T01:51:36.731Z,101165.06
2023-05-07T01:54:42.296Z,101154.53
2023-05-07T01:57:47.506Z,101163.44
2023-05-07T02:00:53.508Z,101154.56
2023-05-07T02:03:59.060Z,101158.34
2023-05-07T02:07:07.500Z,101161.31
2023-05-07T02:10:13.098Z,101164.78
2023-05-07T02:13:18.721Z,101158.03
2023-05-07T02:16:25.210Z,101162.91
2023-05-07T02:19:31.801Z,101168.03
2023-05-07T02:22:37.973Z,101165.34
2023-05-07T02:25:43.625Z,101158.31
2023-05-07T02:28:49.247Z,101155.34
2023-05-07T02:31:54.941Z,101156.16
2023-05-07T02:35:00.912Z,101156.69
2023-05-07T02:38:06.473Z,101158.72
2023-05-07T02:41:12.986Z,101157.72
2023-05-07T02:44:18.341Z,101162.03
2023-05-07T02:47:30.988Z,101169.97
2023-05-07T02:50:38.140Z,101164.78
2023-05-07T02:53:43.618Z,101172.97
2023-05-07T02:56:49.155Z,101162.22
2023-05-07T02:59:54.532Z,101166.00
2023-05-07T03:03:01.029Z,101157.97
2023-05-07T03:06:08.022Z,101153.19
2023-05-07T03:09:13.439Z,101152.47
2023-05-07T03:12:18.991Z,101146.03
2023-05-07T03:15:24.165Z,101144.38
2023-05-07T03:18:29.684Z,101150.91
2023-05-07T03:21:35.663Z,101144.84
2023-05-07T03:24:41.148Z,101153.00
2023-05-07T03:27:47.088Z,101158.28
2023-05-07T03:30:52.409Z,101162.91
2023-05-07T03:33:58.812Z,101162.09
2023-05-07T03:37:05.172Z,101166.97
2023-05-07T03:40:12.227Z,101161.34
2023-05-07T03:43:24.636Z,101162.84
2023-05-07T03:46:39.624Z,101163.94
2023-05-07T03:49:46.436Z,101160.78
2023-05-07T03:52:53.162Z,101159.41
2023-05-07T03:56:00.702Z,101155.38
2023-05-07T03:59:09.846Z,101167.53
2023-05-07T04:02:15.242Z,101169.69
2023-05-07T04:05:20.723Z,101170.16
2023-05-07T04:08:29.711Z,101173.69
2023-05-07T04:11:36.060Z,101170.16
2023-05-07T04:14:41.310Z,101166.88
2023-05-07T04:17:47.069Z,101156.66
2023-05-07T04:20:54.354Z,101166.25
2023-05-07T04:24:00.720Z,101165.50
2023-05-07T04:27:07.835Z,101162.63
2023-05-07T04:30:14.676Z,101171.91
2023-05-07T04:33:21.082Z,101165.44
2023-05-07T04:36:31.529Z,101168.91
2023-05-07T04:39:41.864Z,101178.69
2023-05-07T04:42:47.749Z,101178.72
2023-05-07T04:45:53.762Z,101193.31
2023-05-07T04:49:02.270Z,101194.41
2023-05-07T04:52:08.035Z,101199.81
2023-05-07T04:55:14.070Z,101199.00
2023-05-07T04:58:20.588Z,101202.25
2023-05-07T05:01:27.144Z,101204.97
2023-05-07T05:04:33.208Z,101215.19
2023-05-07T05:07:39.073Z,101221.66
2023-05-07T05:10:44.835Z,101228.38
2023-05-07T05:13:50.704Z,101215.75
2023-05-07T05:16:59.696Z,101223.34
2023-05-07T05:20:07.015Z,101217.94
2023-05-07T05:23:13.807Z,101220.66
2023-05-07T05:26:20.076Z,101230.66
2023-05-07T05:29:25.616Z,101228.75
2023-05-07T05:32:31.183Z,101225.00
2023-05-07T05:35:37.083Z,101226.59
2023-05-07T05:38:45.629Z,101225.50
2023-05-07T05:41:52.866Z,101240.59
2023-05-07T05:44:59.867Z,101231.13
2023-05-07T05:48:07.552Z,101226.75
2023-05-07T05:51:13.248Z,101229.97
2023-05-07T05:54:19.142Z,101228.59
2023-05-07T05:57:25.989Z,101220.78
2023-05-07T06:00:33.735Z,101221.41
2023-05-07T06:03:42.254Z,101224.06
2023-05-07T06:06:52.840Z,101226.44
2023-05-07T06:09:59.500Z,101218.63
2023-05-07T06:13:05.004Z,101226.63
2023-05-07T06:16:12.874Z,101235.75
2023-05-07T06:19:24.304Z,101238.59
2023-05-07T06:22:32.050Z,101242.34
2023-05-07T06:25:38.798Z,101236.88
2023-05-07T06:28:44.417Z,101235.03
2023-05-07T06:31:54.570Z,101234.97
2023-05-07T06:35:01.563Z,101242.19
2023-05-07T06:38:07.183Z,101243.44
2023-05-07T06:41:12.999Z,101243.13
2023-05-07T06:44:19.013Z,101234.13
2023-05-07T06:47:30.332Z,101239.28
2023-05-07T06:50:36.250Z,101251.16
2023-05-07T06:53:42.127Z,101246.84
2023-05-07T06:56:50.175Z,101257.13
2023-05-07T06:59:56.484Z,101244.50
2023-05-07T07:03:02.379Z,101252.31
2023-05-07T07:06:10.159Z,101244.34
2023-05-07T07:09:16.607Z,101235.00
2023-05-07T07:12:21.954Z,101237.56
2023-05-07T07:15:28.081Z,101239.56
2023-05-07T07:18:35.079Z,101240.84
2023-05-07T07:21:40.566Z,101232.69
2023-05-07T07:24:46.412Z,101234.03
2023-05-07T07:27:55.474Z,101233.31
2023-05-07T07:31:02.866Z,101238.44
2023-05-07T07:34:09.895Z,101237.56
2023-05-07T07:37:15.579Z,101228.56
2023-05-07T07:40:21.651Z,101235.38
2023-05-07T07:43:27.826Z,101239.19
2023-05-07T07:46:34.617Z,101235.13
2023-05-07T07:49:40.950Z,101239.53
2023-05-07T07:52:50.343Z,101239.78
2023-05-07T07:55:59.526Z,101240.94
2023-05-07T07:59:08.490Z,101234.19
2023-05-07T08:02:18.480Z,101243.25
2023-05-07T08:05:24.680Z,101242.75
2023-05-07T08:08:30.539Z,101245.34
2023-05-07T08:11:36.541Z,101242.13
2023-05-07T08:14:43.672Z,101244.72
2023-05-07T08:17:49.732Z,101240.47
2023-05-07T08:20:55.634Z,101252.75
2023-05-07T08:24:04.258Z,101256.75
2023-05-07T08:27:09.795Z,101258.41
2023-05-07T08:30:15.653Z,101259.25
2023-05-07T08:33:21.553Z,101265.09
2023-05-07T08:36:27.153Z,101262.22
2023-05-07T08:39:32.702Z,101265.09
2023-05-07T08:42:39.162Z,101262.38
2023-05-07T08:45:47.257Z,101270.16
2023-05-07T08:48:54.597Z,101263.19
2023-05-07T08:52:00.391Z,101265.94
2023-05-07T08:55:08.565Z,101263.69
2023-05-07T08:58:13.720Z,101256.16
2023-05-07T09:01:20.738Z,101262.22
2023-05-07T09:04:30.490Z,101257.88
2023-05-07T09:07:35.755Z,101262.47
2023-05-07T09:10:43.776Z,101251.91
2023-05-07T09:13:49.566Z,101250.47
2023-05-07T09:16:55.276Z,101257.00
2023-05-07T09:20:10.121Z,101252.63
2023-05-07T09:23:18.230Z,101255.91
2023-05-07T09:26:24.497Z,101256.81
2023-05-07T09:29:31.302Z,101256.88
2023-05-07T09:32:39.518Z,101258.47
2023-05-07T09:35:53.095Z,101253.31
2023-05-07T09:39:03.047Z,101251.69
2023-05-07T09:42:09.633Z,101249.25
2023-05-07T09:45:15.898Z,101249.84
2023-05-07T09:48:21.970Z,101251.31
2023-05-07T09:51:44.824Z,101255.72
2023-05-07T09:54:52.852Z,101249.06
2023-05-07T09:58:03.736Z,101259.09
2023-05-07T10:01:09.910Z,101254.38
2023-05-07T10:04:16.588Z,101247.38
2023-05-07T10:07:24.408Z,101242.06
2023-05-07T10:10:35.363Z,101234.47
2023-05-07T10:13:43.982Z,101237.88
2023-05-07T10:16:50.517Z,101234.69
2023-05-07T10:19:56.564Z,101236.78
2023-05-07T10:23:05.916Z,101226.44
2023-05-07T10:26:21.945Z,101228.31
2023-05-07T10:29:45.923Z,101221.72
2023-05-07T10:32:55.414Z,101225.44
2023-05-07T10:36:09.094Z,101220.31
2023-05-07T10:39:15.670Z,101219.25
2023-05-07T10:42:22.031Z,101220.81
2023-05-07T10:45:32.605Z,101217.81
2023-05-07T10:49:02.044Z,101221.06
2023-05-07T10:52:17.424Z,101222.25
2023-05-07T10:55:32.899Z,101217.06
2023-05-07T10:58:46.687Z,101224.69
2023-05-07T11:02:11.160Z,101219.06
2023-05-07T11:05:23.861Z,101219.41
2023-05-07T11:08:59.752Z,101219.16
2023-05-07T11:12:37.895Z,101217.94
2023-05-07T11:15:49.262Z,101204.19
2023-05-07T11:19:01.975Z,101195.41
2023-05-07T11:22:37.069Z,101201.97
2023-05-07T11:26:08.092Z,101196.56
2023-05-07T11:29:22.944Z,101190.47
2023-05-07T11:32:34.947Z,101184.72
2023-05-07T11:35:41.518Z,101195.47
2023-05-07T11:38:49.966Z,101195.78
2023-05-07T11:41:55.994Z,101195.94
2023-05-07T11:45:02.821Z,101193.84
2023-05-07T11:48:08.159Z,101186.31
2023-05-07T11:51:14.530Z,101193.84
2023-05-07T11:54:19.549Z,101183.59
2023-05-07T11:57:25.987Z,101184.69
2023-05-07T12:00:31.417Z,101180.38
2023-05-07T12:03:41.085Z,101183.91
2023-05-07T12:06:46.250Z,101190.09
2023-05-07T12:09:51.615Z,101188.44
2023-05-07T12:12:57.218Z,101186.53
2023-05-07T12:16:06.534Z,101184.09
2023-05-07T12:19:15.914Z,101180.16
2023-05-07T12:22:22.211Z,101178.66
2023-05-07T12:25:27.755Z,101182.97
2023-05-07T12:28:39.305Z,101183.66
2023-05-07T12:31:45.372Z,101185.94
2023-05-07T12:34:53.648Z,101185.00
2023-05-07T12:38:05.684Z,101178.44
2023-05-07T12:41:13.865Z,101179.59
2023-05-07T12:44:19.468Z,101175.56
2023-05-07T12:47:24.800Z,101166.94
2023-05-07T12:50:35.107Z,101165.38
2023-05-07T12:53:44.538Z,101168.25
2023-05-07T12:56:49.897Z,101155.06
2023-05-07T12:59:59.556Z,101163.09
2023-05-07T13:03:05.064Z,101162.63
2023-05-07T13:06:11.710Z,101157.41
2023-05-07T13:09:17.162Z,101155.91
2023-05-07T13:12:22.752Z,101163.22
2023-05-07T13:15:28.663Z,101150.78
2023-05-07T13:18:35.291Z,101144.72
2023-05-07T13:21:41.087Z,101142.53
2023-05-07T13:24:46.867Z,101141.31
2023-05-07T13:28:02.753Z,101135.84
2023-05-07T13:31:15.893Z,101130.56
2023-05-07T13:34:21.553Z,101131.84
2023-05-07T13:37:27.516Z,101126.16
2023-05-07T13:40:33.228Z,101127.97
2023-05-07T13:43:38.979Z,101122.41
2023-05-07T13:46:45.626Z,101123.63
2023-05-07T13:49:51.683Z,101117.69
2023-05-07T13:52:57.807Z,101123.78
2023-05-07T13:56:05.888Z,101116.97
2023-05-07T13:59:11.885Z,101111.75
2023-05-07T14:02:17.881Z,101110.38
2023-05-07T14:05:29.288Z,101102.69
2023-05-07T14:08:34.748Z,101105.09
2023-05-07T14:11:41.166Z,101097.84
2023-05-07T14:14:47.966Z,101092.63
2023-05-07T14:17:54.143Z,101092.53
2023-05-07T14:20:59.825Z,101095.16
2023-05-07T14:24:08.689Z,101086.16
2023-05-07T14:27:14.342Z,101087.16
2023-05-07T14:30:19.768Z,101085.16
2023-05-07T14:33:25.143Z,101085.56
2023-05-07T14:36:31.685Z,101086.38
2023-05-07T14:39:37.569Z,101086.72
2023-05-07T14:42:43.217Z,101087.78
2023-05-07T14:45:48.495Z,101082.81
2023-05-07T14:48:54.354Z,101087.22
2023-05-07T14:52:02.772Z,101080.66
2023-05-07T14:55:08.950Z,101086.53
2023-05-07T14:58:15.265Z,101084.81
2023-05-07T15:01:22.116Z,101083.88
2023-05-07T15:04:27.677Z,101078.97
2023-05-07T15:07:34.290Z,101079.88
2023-05-07T15:10:42.438Z,101083.75
2023-05-07T15:13:48.004Z,101085.28
2023-05-07T15:16:53.185Z,101070.91
2023-05-07T15:19:58.882Z,101083.09
2023-05-07T15:23:10.945Z,101084.44
2023-05-07T15:26:17.859Z,101079.31
2023-05-07T15:29:23.303Z,101076.63
2023-05-07T15:32:28.642Z,101070.69
2023-05-07T15:35:34.373Z,101071.72
2023-05-07T15:38:40.114Z,101076.38
2023-05-07T15:41:45.704Z,101069.56
2023-05-07T15:44:51.102Z,101067.81
2023-05-07T15:47:56.654Z,101070.91
2023-05-07T15:51:03.522Z,101069.91
2023-05-07T15:54:08.917Z,101068.06
2023-05-07T15:57:14.424Z,101067.00
2023-05-07T16:00:20.201Z,101062.53
2023-05-07T16:03:27.956Z,101070.88
2023-05-07T16:06:33.955Z,101072.63
2023-05-07T16:09:39.773Z,101062.34
2023-05-07T16:12:45.687Z,101065.06
2023-05-07T16:15:58.059Z,101057.59
2023-05-07T16:19:04.125Z,101058.50
2023-05-07T16:22:10.621Z,101050.66
2023-05-07T16:25:16.857Z,101045.84
2023-05-07T16:28:24.123Z,101047.09
2023-05-07T16:31:31.926Z,101047.50
2023-05-07T16:34:37.897Z,101044.44
2023-05-07T16:37:43.452Z,101041.31
2023-05-07T16:40:49.107Z,101042.59
2023-05-07T16:43:54.325Z,101047.00
2023-05-07T16:46:59.771Z,101059.31
2023-05-07T16:50:08.674Z,101060.53
2023-05-07T16:53:14.452Z,101060.22
2023-05-07T16:56:20.314Z,101068.22
2023-05-07T16:59:25.857Z,101068.09
2023-05-07T17:02:31.649Z,101067.47
2023-05-07T17:05:37.079Z,101070.88
2023-05-07T17:08:43.231Z,101072.63
2023-05-07T17:11:48.949Z,101069.47
2023-05-07T17:14:54.218Z,101074.75
2023-05-07T17:17:59.679Z,101080.03
2023-05-07T17:21:04.997Z,101083.41
2023-05-07T17:24:10.718Z,101080.41
2023-05-07T17:27:16.632Z,101088.41
2023-05-07T17:30:22.169Z,101084.91
2023-05-07T17:33:27.767Z,101078.63
2023-05-07T17:36:33.544Z,101087.47
2023-05-07T17:39:38.952Z,101082.75
2023-05-07T17:42:44.255Z,101079.91
2023-05-07T17:45:50.561Z,101088.06
2023-05-07T17:48:57.142Z,101087.41
2023-05-07T17:52:02.429Z,101087.13
2023-05-07T17:55:08.935Z,101084.38
2023-05-07T17:58:14.701Z,101085.63
2023-05-07T18:01:22.233Z,101092.69
2023-05-07T18:04:28.438Z,101091.25
2023-05-07T18:07:34.060Z,101087.56
2023-05-07T18:10:39.662Z,101091.53
2023-05-07T18:13:45.258Z,101084.16
2023-05-07T18:16:51.130Z,101096.94
2023-05-07T18:19:56.875Z,101092.47
2023-05-07T18:23:02.524Z,101098.03
2023-05-07T18:26:08.585Z,101089.97
2023-05-07T18:29:14.309Z,101106.72
2023-05-07T18:32:22.000Z,101115.59
2023-05-07T18:35:27.720Z,101118.44
2023-05-07T18:38:34.205Z,101112.09
2023-05-07T18:41:39.875Z,101133.00
2023-05-07T18:44:45.290Z,101136.09
2023-05-07T18:47:50.360Z,101136.06
2023-05-07T18:50:55.309Z,101140.75
2023-05-07T18:54:02.292Z,101141.75
2023-05-07T18:57:07.698Z,101143.31
2023-05-07T19:00:14.400Z,101140.19
2023-05-07T19:03:20.011Z,101140.59
2023-05-07T19:06:26.536Z,101147.25
2023-05-07T19:09:32.314Z,101146.25
2023-05-07T19:12:37.644Z,101144.75
2023-05-07T19:15:44.120Z,101146.34
2023-05-07T19:18:49.741Z,101155.88
2023-05-07T19:21:55.411Z,101158.59
2023-05-07T19:25:01.119Z,101157.97
2023-05-07T19:28:06.929Z,101158.75
2023-05-07T19:31:23.168Z,101163.59
2023-05-07T19:34:30.505Z,101166.25
2023-05-07T19:37:36.930Z,101165.91
2023-05-07T19:40:42.268Z,101170.94
2023-05-07T19:43:48.143Z,101167.72
2023-05-07T19:46:53.474Z,101169.31
2023-05-07T19:49:59.228Z,101179.00
2023-05-07T19:53:05.399Z,101177.72
2023-05-07T19:56:12.055Z,101187.97
2023-05-07T19:59:17.565Z,101186.75
2023-05-07T20:02:23.188Z,101197.66
2023-05-07T20:05:30.307Z,101197.25
2023-05-07T20:08:37.013Z,101198.97
2023-05-07T20:11:44.059Z,101203.22
2023-05-07T20:14:51.578Z,101199.28
2023-05-07T20:17:56.906Z,101199.91
2023-05-07T20:21:01.966Z,101197.75
2023-05-07T20:24:08.011Z,101215.13
2023-05-07T20:27:13.617Z,101219.06
2023-05-07T20:30:24.399Z,101216.88
2023-05-07T20:33:30.238Z,101220.38
2023-05-07T20:36:36.262Z,101216.88
2023-05-07T20:39:42.762Z,101226.50
2023-05-07T20:42:48.523Z,101218.81
2023-05-07T20:46:02.996Z,101216.19
2023-05-07T20:49:08.918Z,101215.59
2023-05-07T20:52:13.958Z,101207.00
2023-05-07T20:55:19.534Z,101205.44
2023-05-07T20:58:26.606Z,101208.16
2023-05-07T21:01:32.390Z,101214.00
2023-05-07T21:04:38.063Z,101215.13
2023-05-07T21:07:43.248Z,101217.31
2023-05-07T21:10:49.277Z,101219.50
2023-05-07T21:13:54.496Z,101237.03
2023-05-07T21:17:00.617Z,101253.84
2023-05-07T21:20:07.100Z,101247.69
2023-05-07T21:23:12.947Z,101256.66
2023-05-07T21:26:19.429Z,101259.00
2023-05-07T21:29:25.369Z,101251.63
2023-05-07T21:32:31.718Z,101256.94
2023-05-07T21:35:37.836Z,101261.09
2023-05-07T21:38:43.608Z,101254.91
2023-05-07T21:41:49.257Z,101262.50
2023-05-07T21:44:54.952Z,101259.53
2023-05-07T21:48:00.470Z,101262.50
2023-05-07T21:51:07.805Z,101263.28
2023-05-07T21:54:13.324Z,101280.47
2023-05-07T21:57:18.926Z,101317.50
2023-05-07T22:00:24.915Z,101340.38
2023-05-07T22:03:30.676Z,101340.03
2023-05-07T22:06:36.518Z,101344.00
2023-05-07T22:09:42.105Z,101343.16
2023-05-07T22:12:48.060Z,101334.00
2023-05-07T22:15:58.116Z,101336.09
2023-05-07T22:19:04.152Z,101341.69
2023-05-07T22:22:09.823Z,101360.44
2023-05-07T22:25:15.341Z,101369.94
2023-05-07T22:28:21.690Z,101393.41
2023-05-07T22:31:27.217Z,101394.19
2023-05-07T22:34:33.089Z,101412.78
2023-05-07T22:37:38.895Z,101415.97
2023-05-07T22:40:44.318Z,101420.66
2023-05-07T22:43:49.810Z,101422.28
2023-05-07T22:46:55.458Z,101409.56
2023-05-07T22:50:01.263Z,101400.25
2023-05-07T22:53:07.125Z,101405.75
2023-05-07T22:56:12.742Z,101410.53
2023-05-07T22:59:18.109Z,101404.94
2023-05-07T23:02:24.417Z,101385.25
2023-05-07T23:05:30.533Z,101388.44
2023-05-07T23:08:35.879Z,101395.41
2023-05-07T23:11:41.727Z,101399.94
2023-05-07T23:14:47.252Z,101380.91
2023-05-07T23:17:52.813Z,101368.13
2023-05-07T23:20:58.999Z,101369.00
2023-05-07T23:24:04.864Z,101366.00
2023-05-07T23:27:10.026Z,101372.78
2023-05-07T23:30:15.841Z,101381.09
2023-05-07T23:33:21.236Z,101378.22
2023-05-07T23:36:27.049Z,101368.66
2023-05-07T23:39:32.849Z,101344.84
2023-05-07T23:42:38.707Z,101342.16
2023-05-07T23:45:44.783Z,101330.06
2023-05-07T23:48:50.286Z,101326.81
2023-05-07T23:51:56.096Z,101317.25
2023-05-07T23:55:01.610Z,101290.47
2023-05-07T23:58:07.322Z,101293.00
